Terminal Aerodrome Forecast
Issued by NWS Brownsville, TX

Home | Current Version | Previous Version | Text Only | Print | Product List | Glossary On
Versions: 1 2 3 4 5 6 7 8 9 10 11 12 13 14 15 16 17 18 19 20 21 22 23 24 25 26 27 28 29 30 31
897
FTUS44 KBRO 061326 AAB
TAFHRL
TAF AMD
KHRL 061326Z 0613/0712 21004KT 4SM BR SKC
      TEMPO 0613/0614 2SM BR
     FM061500 19007KT P6SM SKC
     FM070100 VRB04KT P6SM SKC=

USA.gov is the U.S. government's official web portal to all federal, state and local government web resources and services.